AFL771 UUEE-EDDB
Flight info
| Callsign | AFL771 |
|---|---|
| Flight time | 2h 35m |
| Altitude | 38000 |
| Route | LIDRI3K LIDRI T781 REPNU N858 VEPIS Y219 LAPKI N869 GORAT/N0447F380 N869 MULZA T174 INDIG L980 KELOD L979 GOVEN T205 NUKRO NUKRO1R |
| Aircraft | B738/M-SDE2E3FGHIRWXY/LB1 |
Departure
| Time | 2026-05-05 04:01 |
|---|---|
| Airport | Sheremetyevo International Airport (UUEE) |
Arrival
| Time | 2026-05-05 06:36 |
|---|---|
| Airport | Berlin Brandenburg Airport (EDDB) |
| Time | Latitude | Longitude | Altitude | Speed | Heading |
|---|---|---|---|---|---|
| 2026-05-05 03:32 | 55.97785 | 37.41317 | 638 ft | 0 kts | 256° |
| 2026-05-05 03:41 | 55.97785 | 37.41318 | 638 ft | 0 kts | 256° |
| 2026-05-05 03:50 | 55.97785 | 37.41319 | 638 ft | 2 kts | 256° |
| 2026-05-05 03:50 | 55.97791 | 37.41363 | 642 ft | 4 kts | 254° |
| 2026-05-05 03:50 | 55.97801 | 37.41406 | 640 ft | 4 kts | 227° |
| 2026-05-05 03:50 | 55.97814 | 37.41419 | 640 ft | 0 kts | 165° |
| 2026-05-05 03:54 | 55.97813 | 37.41419 | 638 ft | 0 kts | 165° |
| 2026-05-05 03:54 | 55.97801 | 37.41425 | 638 ft | 4 kts | 165° |
| 2026-05-05 03:54 | 55.97753 | 37.41448 | 638 ft | 10 kts | 165° |
| 2026-05-05 03:55 | 55.97685 | 37.41498 | 638 ft | 10 kts | 128° |
| 2026-05-05 03:55 | 55.97646 | 37.41596 | 638 ft | 10 kts | 154° |
| 2026-05-05 03:55 | 55.97609 | 37.41685 | 643 ft | 10 kts | 83° |
| 2026-05-05 03:55 | 55.97627 | 37.41800 | 638 ft | 10 kts | 77° |
| 2026-05-05 03:56 | 55.97632 | 37.41838 | 641 ft | 1 kts | 76° |
| 2026-05-05 03:56 | 55.97637 | 37.41867 | 643 ft | 5 kts | 72° |
| 2026-05-05 03:56 | 55.97650 | 37.41955 | 642 ft | 10 kts | 75° |
| 2026-05-05 03:56 | 55.97672 | 37.42105 | 638 ft | 15 kts | 75° |
| 2026-05-05 03:57 | 55.97701 | 37.42299 | 639 ft | 16 kts | 74° |
| 2026-05-05 03:57 | 55.97731 | 37.42492 | 640 ft | 16 kts | 74° |
| 2026-05-05 03:57 | 55.97758 | 37.42677 | 640 ft | 15 kts | 75° |
| 2026-05-05 03:57 | 55.97785 | 37.42856 | 638 ft | 15 kts | 75° |
| 2026-05-05 03:58 | 55.97810 | 37.43025 | 640 ft | 14 kts | 75° |
| 2026-05-05 03:58 | 55.97835 | 37.43189 | 647 ft | 14 kts | 75° |
| 2026-05-05 03:58 | 55.97861 | 37.43363 | 640 ft | 15 kts | 75° |
| 2026-05-05 03:58 | 55.97888 | 37.43545 | 638 ft | 15 kts | 75° |
| 2026-05-05 03:59 | 55.97914 | 37.43718 | 639 ft | 14 kts | 75° |
| 2026-05-05 03:59 | 55.97938 | 37.43884 | 640 ft | 13 kts | 75° |
| 2026-05-05 03:59 | 55.97924 | 37.44030 | 639 ft | 13 kts | 150° |
| 2026-05-05 03:59 | 55.97838 | 37.44073 | 639 ft | 13 kts | 167° |
| 2026-05-05 04:00 | 55.97785 | 37.44034 | 639 ft | 9 kts | 245° |
| 2026-05-05 04:00 | 55.97778 | 37.43992 | 639 ft | 17 kts | 253° |
| 2026-05-05 04:00 | 55.97677 | 37.43324 | 639 ft | 93 kts | 255° |
| 2026-05-05 04:00 | 55.97449 | 37.41815 | 662 ft | 153 kts | 254° |
| 2026-05-05 04:01 | 55.97164 | 37.39907 | 1252 ft | 163 kts | 255° |
| 2026-05-05 04:01 | 55.96872 | 37.37935 | 2115 ft | 164 kts | 259° |
| 2026-05-05 04:01 | 55.96566 | 37.35952 | 2980 ft | 166 kts | 257° |
| 2026-05-05 04:01 | 55.96248 | 37.33891 | 3619 ft | 182 kts | 256° |
| 2026-05-05 04:02 | 55.95893 | 37.31645 | 4106 ft | 192 kts | 256° |
| 2026-05-05 04:02 | 55.95522 | 37.29306 | 4625 ft | 199 kts | 255° |
| 2026-05-05 04:02 | 55.95143 | 37.26913 | 5125 ft | 206 kts | 255° |
| 2026-05-05 04:02 | 55.94746 | 37.24408 | 5584 ft | 214 kts | 255° |
| 2026-05-05 04:03 | 55.94331 | 37.21781 | 6012 ft | 226 kts | 255° |
| 2026-05-05 04:03 | 55.93891 | 37.19004 | 6422 ft | 239 kts | 255° |
| 2026-05-05 04:03 | 55.93424 | 37.16057 | 6937 ft | 251 kts | 255° |
| 2026-05-05 04:03 | 55.92949 | 37.13053 | 7834 ft | 251 kts | 255° |
| 2026-05-05 04:04 | 55.92471 | 37.10043 | 8711 ft | 254 kts | 255° |
| 2026-05-05 04:04 | 55.91985 | 37.06989 | 9551 ft | 258 kts | 255° |
| 2026-05-05 04:04 | 55.91494 | 37.03911 | 10371 ft | 260 kts | 255° |
| 2026-05-05 04:04 | 55.91021 | 37.00771 | 11143 ft | 263 kts | 261° |
| 2026-05-05 04:05 | 55.90943 | 36.97501 | 11721 ft | 276 kts | 270° |
| 2026-05-05 04:05 | 55.91001 | 36.93925 | 11904 ft | 302 kts | 271° |
| 2026-05-05 04:05 | 55.91065 | 36.90046 | 12200 ft | 322 kts | 271° |
| 2026-05-05 04:05 | 55.91118 | 36.85989 | 12826 ft | 330 kts | 270° |
| 2026-05-05 04:06 | 55.91159 | 36.81870 | 13627 ft | 334 kts | 270° |
| 2026-05-05 04:06 | 55.91196 | 36.77724 | 14388 ft | 336 kts | 270° |
| 2026-05-05 04:06 | 55.91008 | 36.73544 | 15097 ft | 341 kts | 258° |
| 2026-05-05 04:06 | 55.90426 | 36.69422 | 15838 ft | 345 kts | 255° |
| 2026-05-05 04:07 | 55.89797 | 36.65263 | 16553 ft | 349 kts | 255° |
| 2026-05-05 04:07 | 55.89167 | 36.61048 | 17248 ft | 354 kts | 256° |
| 2026-05-05 04:07 | 55.88556 | 36.56831 | 17955 ft | 358 kts | 256° |
| 2026-05-05 04:07 | 55.87940 | 36.52505 | 18592 ft | 362 kts | 256° |
| 2026-05-05 04:08 | 55.87320 | 36.48126 | 19240 ft | 365 kts | 256° |
| 2026-05-05 04:08 | 55.86706 | 36.43724 | 19890 ft | 367 kts | 257° |
| 2026-05-05 04:08 | 55.86143 | 36.39261 | 20522 ft | 370 kts | 258° |
| 2026-05-05 04:08 | 55.85609 | 36.34823 | 21117 ft | 373 kts | 258° |
| 2026-05-05 04:09 | 55.85064 | 36.30272 | 21721 ft | 376 kts | 258° |
| 2026-05-05 04:09 | 55.84510 | 36.25697 | 22231 ft | 381 kts | 258° |
| 2026-05-05 04:09 | 55.83942 | 36.21054 | 22803 ft | 384 kts | 258° |
| 2026-05-05 04:09 | 55.83366 | 36.16389 | 23375 ft | 387 kts | 258° |
| 2026-05-05 04:10 | 55.82784 | 36.11701 | 23862 ft | 389 kts | 258° |
| 2026-05-05 04:10 | 55.82203 | 36.07045 | 24366 ft | 391 kts | 258° |
| 2026-05-05 04:10 | 55.81614 | 36.02352 | 25051 ft | 387 kts | 258° |
| 2026-05-05 04:10 | 55.81022 | 35.97661 | 25501 ft | 390 kts | 257° |
| 2026-05-05 04:11 | 55.80418 | 35.92924 | 25864 ft | 395 kts | 257° |
| 2026-05-05 04:11 | 55.79806 | 35.88143 | 26281 ft | 397 kts | 257° |
| 2026-05-05 04:11 | 55.79191 | 35.83355 | 26876 ft | 395 kts | 257° |
| 2026-05-05 04:11 | 55.78589 | 35.78676 | 27549 ft | 391 kts | 257° |
| 2026-05-05 04:12 | 55.77982 | 35.73975 | 28243 ft | 387 kts | 257° |
| 2026-05-05 04:12 | 55.77381 | 35.69322 | 28897 ft | 385 kts | 257° |
| 2026-05-05 04:12 | 55.76782 | 35.64693 | 29477 ft | 384 kts | 257° |
| 2026-05-05 04:12 | 55.76182 | 35.60082 | 29984 ft | 383 kts | 257° |
| 2026-05-05 04:13 | 55.75578 | 35.55460 | 30319 ft | 386 kts | 257° |
| 2026-05-05 04:13 | 55.75116 | 35.50761 | 30764 ft | 385 kts | 263° |
| 2026-05-05 04:13 | 55.74895 | 35.46044 | 31340 ft | 381 kts | 265° |
| 2026-05-05 04:13 | 55.74744 | 35.41360 | 31902 ft | 378 kts | 265° |
| 2026-05-05 04:14 | 55.74596 | 35.36757 | 32360 ft | 377 kts | 265° |
| 2026-05-05 04:14 | 55.74428 | 35.32115 | 32796 ft | 376 kts | 264° |
| 2026-05-05 04:14 | 55.74241 | 35.27487 | 33274 ft | 374 kts | 264° |
| 2026-05-05 04:14 | 55.74043 | 35.22898 | 33775 ft | 372 kts | 264° |
| 2026-05-05 04:15 | 55.73840 | 35.18322 | 34173 ft | 371 kts | 264° |
| 2026-05-05 04:15 | 55.73633 | 35.13756 | 34438 ft | 372 kts | 264° |
| 2026-05-05 04:15 | 55.73422 | 35.09154 | 34691 ft | 374 kts | 264° |
| 2026-05-05 04:15 | 55.73211 | 35.04587 | 34998 ft | 375 kts | 264° |
| 2026-05-05 04:16 | 55.72996 | 34.99974 | 35306 ft | 375 kts | 264° |
| 2026-05-05 04:16 | 55.72777 | 34.95343 | 35572 ft | 376 kts | 264° |
| 2026-05-05 04:16 | 55.72557 | 34.90708 | 35850 ft | 377 kts | 264° |
| 2026-05-05 04:16 | 55.72335 | 34.86060 | 36139 ft | 377 kts | 264° |
| 2026-05-05 04:17 | 55.72115 | 34.81475 | 36401 ft | 378 kts | 264° |
| 2026-05-05 04:17 | 55.71889 | 34.76818 | 36660 ft | 379 kts | 264° |
| 2026-05-05 04:17 | 55.71663 | 34.72156 | 36880 ft | 381 kts | 264° |
| 2026-05-05 04:17 | 55.71432 | 34.67466 | 37107 ft | 382 kts | 264° |
| 2026-05-05 04:18 | 55.71199 | 34.62774 | 37396 ft | 381 kts | 264° |
| 2026-05-05 04:18 | 55.70811 | 34.58120 | 37651 ft | 382 kts | 257° |
| 2026-05-05 04:18 | 55.70016 | 34.53619 | 37858 ft | 383 kts | 251° |
| 2026-05-05 04:18 | 55.69088 | 34.49152 | 37881 ft | 388 kts | 251° |
| 2026-05-05 04:19 | 55.67199 | 34.40154 | 37887 ft | 389 kts | 251° |
| 2026-05-05 04:19 | 55.65343 | 34.31254 | 37878 ft | 381 kts | 251° |
| 2026-05-05 04:20 | 55.63525 | 34.22492 | 37894 ft | 380 kts | 251° |
| 2026-05-05 04:20 | 55.61704 | 34.13736 | 37895 ft | 381 kts | 251° |
| 2026-05-05 04:21 | 55.59865 | 34.04929 | 37882 ft | 381 kts | 251° |
| 2026-05-05 04:21 | 55.58021 | 33.96136 | 37897 ft | 382 kts | 251° |
| 2026-05-05 04:22 | 55.56166 | 33.87330 | 37895 ft | 383 kts | 251° |
| 2026-05-05 04:22 | 55.54309 | 33.78552 | 37895 ft | 384 kts | 250° |
| 2026-05-05 04:23 | 55.52431 | 33.69708 | 37900 ft | 385 kts | 250° |
| 2026-05-05 04:23 | 55.50687 | 33.60785 | 37902 ft | 384 kts | 255° |
| 2026-05-05 04:24 | 55.49583 | 33.53178 | 37907 ft | 385 kts | 257° |
| 2026-05-05 04:25 | 55.47436 | 33.37938 | 37901 ft | 385 kts | 256° |
| 2026-05-05 04:25 | 55.46109 | 33.28789 | 37902 ft | 385 kts | 256° |
| 2026-05-05 04:26 | 55.44986 | 33.21152 | 37900 ft | 384 kts | 256° |
| 2026-05-05 04:26 | 55.43645 | 33.12102 | 37900 ft | 383 kts | 256° |
| 2026-05-05 04:27 | 55.42290 | 33.03018 | 37899 ft | 383 kts | 256° |
| 2026-05-05 04:27 | 55.40933 | 32.93973 | 37904 ft | 382 kts | 256° |
| 2026-05-05 04:28 | 55.39570 | 32.84933 | 37907 ft | 381 kts | 256° |
| 2026-05-05 04:28 | 55.38203 | 32.75916 | 37900 ft | 381 kts | 256° |
| 2026-05-05 04:29 | 55.36840 | 32.66976 | 37911 ft | 380 kts | 255° |
| 2026-05-05 04:29 | 55.35461 | 32.57982 | 37903 ft | 382 kts | 255° |
| 2026-05-05 04:30 | 55.34053 | 32.48844 | 37912 ft | 392 kts | 255° |
| 2026-05-05 04:30 | 55.32609 | 32.39530 | 37914 ft | 402 kts | 255° |
| 2026-05-05 04:31 | 55.31115 | 32.29944 | 37911 ft | 411 kts | 255° |
| 2026-05-05 04:31 | 55.29580 | 32.20153 | 37911 ft | 420 kts | 255° |
| 2026-05-05 04:32 | 55.28007 | 32.10185 | 37903 ft | 427 kts | 255° |
| 2026-05-05 04:32 | 55.26403 | 32.00079 | 37900 ft | 431 kts | 255° |
| 2026-05-05 04:33 | 55.24785 | 31.89941 | 37921 ft | 432 kts | 255° |
| 2026-05-05 04:33 | 55.23158 | 31.79812 | 37913 ft | 435 kts | 255° |
| 2026-05-05 04:34 | 55.21509 | 31.69606 | 37900 ft | 436 kts | 255° |
| 2026-05-05 04:34 | 55.19847 | 31.59382 | 37901 ft | 436 kts | 254° |
| 2026-05-05 04:35 | 55.18179 | 31.49180 | 37901 ft | 436 kts | 254° |
| 2026-05-05 04:35 | 55.16505 | 31.38999 | 37894 ft | 434 kts | 254° |
| 2026-05-05 04:36 | 55.14842 | 31.28944 | 37893 ft | 433 kts | 254° |
| 2026-05-05 04:36 | 55.13156 | 31.18811 | 37896 ft | 432 kts | 254° |
| 2026-05-05 04:37 | 55.11480 | 31.08784 | 37904 ft | 432 kts | 254° |
| 2026-05-05 04:37 | 55.09757 | 30.98722 | 37899 ft | 432 kts | 252° |
| 2026-05-05 04:38 | 55.07277 | 30.89125 | 37894 ft | 434 kts | 245° |
| 2026-05-05 04:38 | 55.04618 | 30.79658 | 37880 ft | 434 kts | 245° |
| 2026-05-05 04:39 | 55.01984 | 30.70206 | 37891 ft | 433 kts | 246° |
| 2026-05-05 04:39 | 54.99383 | 30.60804 | 37895 ft | 433 kts | 246° |
| 2026-05-05 04:40 | 54.96764 | 30.51338 | 37893 ft | 433 kts | 246° |
| 2026-05-05 04:40 | 54.94139 | 30.41884 | 37896 ft | 433 kts | 246° |
| 2026-05-05 04:41 | 54.91525 | 30.32512 | 37891 ft | 433 kts | 246° |
| 2026-05-05 04:41 | 54.88890 | 30.23104 | 37892 ft | 433 kts | 245° |
| 2026-05-05 04:42 | 54.86243 | 30.13694 | 37893 ft | 433 kts | 245° |
| 2026-05-05 04:42 | 54.83588 | 30.04291 | 37897 ft | 432 kts | 246° |
| 2026-05-05 04:43 | 54.80938 | 29.94946 | 37886 ft | 431 kts | 246° |
| 2026-05-05 04:43 | 54.78292 | 29.85649 | 37889 ft | 429 kts | 246° |
| 2026-05-05 04:44 | 54.75664 | 29.76452 | 37873 ft | 429 kts | 246° |
| 2026-05-05 04:44 | 54.73011 | 29.67205 | 37888 ft | 427 kts | 246° |
| 2026-05-05 04:45 | 54.70360 | 29.57997 | 37895 ft | 427 kts | 245° |
| 2026-05-05 04:45 | 54.67702 | 29.48799 | 37891 ft | 427 kts | 245° |
| 2026-05-05 04:46 | 54.65123 | 29.39641 | 37894 ft | 426 kts | 246° |
| 2026-05-05 04:46 | 54.62574 | 29.30388 | 37897 ft | 427 kts | 246° |
| 2026-05-05 04:47 | 54.60010 | 29.21140 | 37875 ft | 427 kts | 246° |
| 2026-05-05 04:47 | 54.57432 | 29.11917 | 37893 ft | 426 kts | 246° |
| 2026-05-05 04:48 | 54.54866 | 29.02776 | 37894 ft | 425 kts | 246° |
| 2026-05-05 04:48 | 54.52277 | 28.93593 | 37896 ft | 425 kts | 246° |
| 2026-05-05 04:49 | 54.49689 | 28.84438 | 37895 ft | 425 kts | 246° |
| 2026-05-05 04:49 | 54.47174 | 28.75318 | 37902 ft | 424 kts | 248° |
| 2026-05-05 04:50 | 54.44831 | 28.65996 | 37895 ft | 424 kts | 249° |
| 2026-05-05 04:50 | 54.42504 | 28.56685 | 37901 ft | 424 kts | 248° |
| 2026-05-05 04:51 | 54.40165 | 28.47470 | 37906 ft | 424 kts | 248° |
| 2026-05-05 04:51 | 54.37787 | 28.38197 | 37905 ft | 424 kts | 248° |
| 2026-05-05 04:52 | 54.35395 | 28.28918 | 37918 ft | 424 kts | 248° |
| 2026-05-05 04:52 | 54.32999 | 28.19668 | 37902 ft | 424 kts | 248° |
| 2026-05-05 04:53 | 54.30613 | 28.10490 | 37895 ft | 424 kts | 248° |
| 2026-05-05 04:53 | 54.28201 | 28.01249 | 37908 ft | 424 kts | 248° |
| 2026-05-05 04:54 | 54.25800 | 27.92089 | 37912 ft | 424 kts | 248° |
| 2026-05-05 04:54 | 54.23376 | 27.82875 | 37911 ft | 424 kts | 248° |
| 2026-05-05 04:55 | 54.20943 | 27.73669 | 37911 ft | 424 kts | 248° |
| 2026-05-05 04:55 | 54.18508 | 27.64489 | 37911 ft | 424 kts | 247° |
| 2026-05-05 04:56 | 54.16080 | 27.55371 | 37892 ft | 424 kts | 247° |
| 2026-05-05 04:56 | 54.13628 | 27.46194 | 37907 ft | 425 kts | 247° |
| 2026-05-05 04:57 | 54.11163 | 27.37009 | 37912 ft | 426 kts | 247° |
| 2026-05-05 04:57 | 54.08471 | 27.27980 | 37907 ft | 427 kts | 242° |
| 2026-05-05 04:58 | 54.05496 | 27.19284 | 37905 ft | 428 kts | 242° |
| 2026-05-05 04:58 | 54.02493 | 27.10525 | 37907 ft | 428 kts | 242° |
| 2026-05-05 04:59 | 53.99519 | 27.01757 | 37899 ft | 428 kts | 242° |
| 2026-05-05 04:59 | 53.96546 | 26.92979 | 37908 ft | 428 kts | 242° |
| 2026-05-05 05:00 | 53.93576 | 26.84241 | 37907 ft | 429 kts | 242° |
| 2026-05-05 05:00 | 53.90583 | 26.75467 | 37911 ft | 429 kts | 242° |
| 2026-05-05 05:01 | 53.87987 | 26.66478 | 37920 ft | 427 kts | 249° |
| 2026-05-05 05:01 | 53.85798 | 26.57106 | 37909 ft | 427 kts | 250° |
| 2026-05-05 05:02 | 53.83613 | 26.47749 | 37906 ft | 427 kts | 250° |
| 2026-05-05 05:02 | 53.81400 | 26.38456 | 37914 ft | 428 kts | 249° |
| 2026-05-05 05:03 | 53.79149 | 26.29121 | 37915 ft | 428 kts | 249° |
| 2026-05-05 05:03 | 53.76886 | 26.19790 | 37916 ft | 428 kts | 249° |
| 2026-05-05 05:04 | 53.74628 | 26.10524 | 37914 ft | 429 kts | 249° |
| 2026-05-05 05:04 | 53.72349 | 26.01206 | 37918 ft | 429 kts | 249° |
| 2026-05-05 05:05 | 53.70064 | 25.91903 | 37915 ft | 429 kts | 249° |
| 2026-05-05 05:05 | 53.67765 | 25.82581 | 37924 ft | 429 kts | 249° |
| 2026-05-05 05:06 | 53.65474 | 25.73332 | 37929 ft | 429 kts | 249° |
| 2026-05-05 05:06 | 53.63163 | 25.64038 | 37916 ft | 429 kts | 249° |
| 2026-05-05 05:07 | 53.60849 | 25.54776 | 37919 ft | 428 kts | 249° |
| 2026-05-05 05:07 | 53.58549 | 25.45605 | 37926 ft | 427 kts | 249° |
| 2026-05-05 05:08 | 53.56225 | 25.36374 | 37905 ft | 428 kts | 249° |
| 2026-05-05 05:08 | 53.53895 | 25.27160 | 37925 ft | 428 kts | 248° |
| 2026-05-05 05:09 | 53.51572 | 25.18009 | 37930 ft | 428 kts | 248° |
| 2026-05-05 05:09 | 53.49224 | 25.08794 | 37925 ft | 429 kts | 248° |
| 2026-05-05 05:10 | 53.46865 | 24.99576 | 37933 ft | 429 kts | 248° |
| 2026-05-05 05:10 | 53.44489 | 24.90371 | 37927 ft | 429 kts | 248° |
| 2026-05-05 05:11 | 53.42128 | 24.81268 | 37931 ft | 428 kts | 248° |
| 2026-05-05 05:11 | 53.39744 | 24.72108 | 37930 ft | 428 kts | 248° |
| 2026-05-05 05:12 | 53.37358 | 24.62970 | 37936 ft | 428 kts | 248° |
| 2026-05-05 05:12 | 53.35369 | 24.55382 | 37936 ft | 428 kts | 248° |
| 2026-05-05 05:13 | 53.32582 | 24.44788 | 37939 ft | 428 kts | 248° |
| 2026-05-05 05:13 | 53.30173 | 24.35672 | 37936 ft | 428 kts | 248° |
| 2026-05-05 05:14 | 53.28153 | 24.28057 | 37939 ft | 428 kts | 248° |
| 2026-05-05 05:14 | 53.25745 | 24.19010 | 37937 ft | 428 kts | 247° |
| 2026-05-05 05:15 | 53.23318 | 24.09926 | 37930 ft | 428 kts | 247° |
| 2026-05-05 05:15 | 53.20882 | 24.00843 | 37939 ft | 428 kts | 247° |
| 2026-05-05 05:16 | 53.18441 | 23.91776 | 37939 ft | 428 kts | 247° |
| 2026-05-05 05:16 | 53.16025 | 23.82758 | 37938 ft | 428 kts | 248° |
| 2026-05-05 05:17 | 53.13622 | 23.73681 | 37932 ft | 428 kts | 248° |
| 2026-05-05 05:17 | 53.11211 | 23.64602 | 37926 ft | 429 kts | 248° |
| 2026-05-05 05:18 | 53.08788 | 23.55530 | 37935 ft | 429 kts | 247° |
| 2026-05-05 05:18 | 53.06354 | 23.46460 | 37931 ft | 429 kts | 247° |
| 2026-05-05 05:19 | 53.03924 | 23.37442 | 37938 ft | 429 kts | 247° |
| 2026-05-05 05:19 | 53.01474 | 23.28384 | 37933 ft | 429 kts | 247° |
| 2026-05-05 05:20 | 52.99015 | 23.19326 | 37930 ft | 429 kts | 247° |
| 2026-05-05 05:20 | 52.96550 | 23.10284 | 37921 ft | 430 kts | 247° |
| 2026-05-05 05:21 | 52.94081 | 23.01254 | 37926 ft | 430 kts | 247° |
| 2026-05-05 05:21 | 52.91609 | 22.92275 | 37926 ft | 430 kts | 246° |
| 2026-05-05 05:22 | 52.89044 | 22.83278 | 37933 ft | 431 kts | 246° |
| 2026-05-05 05:22 | 52.86478 | 22.74373 | 37929 ft | 431 kts | 246° |
| 2026-05-05 05:23 | 52.83905 | 22.65436 | 37921 ft | 430 kts | 246° |
| 2026-05-05 05:23 | 52.81329 | 22.56502 | 37918 ft | 430 kts | 246° |
| 2026-05-05 05:24 | 52.78749 | 22.47580 | 37923 ft | 430 kts | 246° |
| 2026-05-05 05:24 | 52.76170 | 22.38664 | 37924 ft | 430 kts | 246° |
| 2026-05-05 05:25 | 52.73671 | 22.29764 | 37922 ft | 430 kts | 246° |
| 2026-05-05 05:25 | 52.71159 | 22.20791 | 37924 ft | 430 kts | 246° |
| 2026-05-05 05:26 | 52.68635 | 22.11834 | 37923 ft | 430 kts | 246° |
| 2026-05-05 05:26 | 52.66101 | 22.02897 | 37913 ft | 430 kts | 246° |
| 2026-05-05 05:27 | 52.63579 | 21.94038 | 37923 ft | 430 kts | 246° |
| 2026-05-05 05:27 | 52.59758 | 21.80682 | 37922 ft | 429 kts | 246° |
| 2026-05-05 05:28 | 52.57202 | 21.71785 | 37920 ft | 429 kts | 246° |
| 2026-05-05 05:28 | 52.54658 | 21.62967 | 37917 ft | 429 kts | 246° |
| 2026-05-05 05:29 | 52.52095 | 21.54111 | 37917 ft | 429 kts | 246° |
| 2026-05-05 05:29 | 52.49522 | 21.45251 | 37921 ft | 429 kts | 245° |
| 2026-05-05 05:30 | 52.46933 | 21.36399 | 37925 ft | 430 kts | 245° |
| 2026-05-05 05:30 | 52.44330 | 21.27548 | 37916 ft | 430 kts | 245° |
| 2026-05-05 05:31 | 52.41741 | 21.18772 | 37913 ft | 430 kts | 245° |
| 2026-05-05 05:31 | 52.39128 | 21.09938 | 37914 ft | 430 kts | 245° |
| 2026-05-05 05:32 | 52.36511 | 21.01124 | 37913 ft | 430 kts | 245° |
| 2026-05-05 05:32 | 52.33909 | 20.92390 | 37909 ft | 430 kts | 245° |
| 2026-05-05 05:33 | 52.31277 | 20.83589 | 37911 ft | 431 kts | 245° |
| 2026-05-05 05:33 | 52.28636 | 20.74784 | 37909 ft | 431 kts | 245° |
| 2026-05-05 05:34 | 52.26117 | 20.65867 | 37910 ft | 431 kts | 251° |
| 2026-05-05 05:34 | 52.24864 | 20.56329 | 37925 ft | 430 kts | 261° |
| 2026-05-05 05:35 | 52.23932 | 20.46678 | 37912 ft | 430 kts | 261° |
| 2026-05-05 05:35 | 52.22973 | 20.37107 | 37911 ft | 430 kts | 260° |
| 2026-05-05 05:36 | 52.21977 | 20.27466 | 37908 ft | 430 kts | 260° |
| 2026-05-05 05:36 | 52.20970 | 20.17848 | 37912 ft | 430 kts | 260° |
| 2026-05-05 05:37 | 52.19961 | 20.08286 | 37923 ft | 431 kts | 259° |
| 2026-05-05 05:37 | 52.18939 | 19.98664 | 37910 ft | 430 kts | 259° |
| 2026-05-05 05:38 | 52.17911 | 19.89059 | 37914 ft | 430 kts | 259° |
| 2026-05-05 05:38 | 52.16972 | 19.79430 | 37911 ft | 430 kts | 261° |
| 2026-05-05 05:39 | 52.16161 | 19.69837 | 37911 ft | 429 kts | 261° |
| 2026-05-05 05:39 | 52.15326 | 19.60189 | 37912 ft | 429 kts | 261° |
| 2026-05-05 05:40 | 52.14465 | 19.50550 | 37912 ft | 429 kts | 261° |
| 2026-05-05 05:40 | 52.13594 | 19.40914 | 37913 ft | 429 kts | 261° |
| 2026-05-05 05:41 | 52.12719 | 19.31353 | 37908 ft | 430 kts | 261° |
| 2026-05-05 05:41 | 52.11816 | 19.21736 | 37913 ft | 430 kts | 261° |
| 2026-05-05 05:42 | 52.10903 | 19.12113 | 37917 ft | 430 kts | 261° |
| 2026-05-05 05:42 | 52.09982 | 19.02481 | 37915 ft | 431 kts | 261° |
| 2026-05-05 05:43 | 52.09062 | 18.92917 | 37923 ft | 430 kts | 260° |
| 2026-05-05 05:43 | 52.08129 | 18.83302 | 37918 ft | 430 kts | 260° |
| 2026-05-05 05:44 | 52.07187 | 18.73692 | 37920 ft | 429 kts | 260° |
| 2026-05-05 05:44 | 52.06247 | 18.64167 | 37919 ft | 428 kts | 260° |
| 2026-05-05 05:45 | 52.05292 | 18.54591 | 37921 ft | 428 kts | 260° |
| 2026-05-05 05:45 | 52.04332 | 18.45041 | 37923 ft | 428 kts | 260° |
| 2026-05-05 05:46 | 52.03367 | 18.35504 | 37921 ft | 428 kts | 259° |
| 2026-05-05 05:46 | 52.02393 | 18.25974 | 37920 ft | 427 kts | 259° |
| 2026-05-05 05:47 | 52.01413 | 18.16453 | 37918 ft | 427 kts | 259° |
| 2026-05-05 05:47 | 52.00434 | 18.07011 | 37920 ft | 427 kts | 259° |
| 2026-05-05 05:48 | 51.99983 | 17.97405 | 37924 ft | 429 kts | 272° |
| 2026-05-05 05:48 | 52.00942 | 17.87809 | 37941 ft | 431 kts | 278° |
| 2026-05-05 05:49 | 52.02018 | 17.78216 | 37922 ft | 431 kts | 277° |
| 2026-05-05 05:49 | 52.03057 | 17.68675 | 37916 ft | 431 kts | 277° |
| 2026-05-05 05:50 | 52.04090 | 17.59079 | 37918 ft | 431 kts | 277° |
| 2026-05-05 05:50 | 52.05115 | 17.49497 | 37920 ft | 431 kts | 277° |
| 2026-05-05 05:51 | 52.06132 | 17.39929 | 37933 ft | 431 kts | 277° |
| 2026-05-05 05:51 | 52.07150 | 17.30324 | 37918 ft | 432 kts | 277° |
| 2026-05-05 05:52 | 52.08165 | 17.20691 | 37907 ft | 432 kts | 277° |
| 2026-05-05 05:52 | 52.09173 | 17.11053 | 37911 ft | 432 kts | 277° |
| 2026-05-05 05:53 | 52.10172 | 17.01419 | 37911 ft | 432 kts | 277° |
| 2026-05-05 05:53 | 52.11164 | 16.91772 | 37929 ft | 432 kts | 277° |
| 2026-05-05 05:54 | 52.12148 | 16.82119 | 37915 ft | 432 kts | 277° |
| 2026-05-05 05:54 | 52.13127 | 16.72440 | 37576 ft | 435 kts | 277° |
| 2026-05-05 05:55 | 52.13667 | 16.67606 | 37297 ft | 432 kts | 278° |
| 2026-05-05 05:55 | 52.14256 | 16.62864 | 36787 ft | 434 kts | 279° |
| 2026-05-05 05:55 | 52.14871 | 16.58065 | 36268 ft | 433 kts | 279° |
| 2026-05-05 05:55 | 52.15481 | 16.53277 | 35761 ft | 432 kts | 278° |
| 2026-05-05 05:56 | 52.16082 | 16.48481 | 35250 ft | 431 kts | 278° |
| 2026-05-05 05:56 | 52.16670 | 16.43706 | 34771 ft | 430 kts | 278° |
| 2026-05-05 05:56 | 52.17251 | 16.38941 | 34285 ft | 428 kts | 278° |
| 2026-05-05 05:56 | 52.17827 | 16.34187 | 33680 ft | 425 kts | 277° |
| 2026-05-05 05:57 | 52.18394 | 16.29489 | 33012 ft | 421 kts | 277° |
| 2026-05-05 05:57 | 52.18955 | 16.24828 | 32397 ft | 417 kts | 277° |
| 2026-05-05 05:57 | 52.19510 | 16.20206 | 31797 ft | 414 kts | 277° |
| 2026-05-05 05:57 | 52.20069 | 16.15626 | 31204 ft | 410 kts | 278° |
| 2026-05-05 05:58 | 52.20628 | 16.11079 | 30656 ft | 407 kts | 278° |
| 2026-05-05 05:58 | 52.21182 | 16.06576 | 30114 ft | 403 kts | 278° |
| 2026-05-05 05:58 | 52.21731 | 16.02095 | 29510 ft | 400 kts | 277° |
| 2026-05-05 05:58 | 52.22270 | 15.97667 | 28907 ft | 396 kts | 277° |
| 2026-05-05 05:59 | 52.22792 | 15.93279 | 28310 ft | 392 kts | 275° |
| 2026-05-05 05:59 | 52.22989 | 15.88958 | 27723 ft | 384 kts | 266° |
| 2026-05-05 05:59 | 52.22817 | 15.84637 | 27145 ft | 378 kts | 259° |
| 2026-05-05 05:59 | 52.22269 | 15.80475 | 26582 ft | 374 kts | 254° |
| 2026-05-05 06:00 | 52.21630 | 15.76388 | 26024 ft | 371 kts | 253° |
| 2026-05-05 06:00 | 52.20990 | 15.72328 | 25493 ft | 368 kts | 253° |
| 2026-05-05 06:00 | 52.20361 | 15.68304 | 24996 ft | 364 kts | 254° |
| 2026-05-05 06:00 | 52.19743 | 15.64323 | 24522 ft | 361 kts | 254° |
| 2026-05-05 06:01 | 52.19134 | 15.60373 | 24075 ft | 357 kts | 254° |
| 2026-05-05 06:01 | 52.18533 | 15.56466 | 23638 ft | 354 kts | 254° |
| 2026-05-05 06:01 | 52.17936 | 15.52595 | 23143 ft | 351 kts | 254° |
| 2026-05-05 06:01 | 52.17542 | 15.50049 | 22805 ft | 349 kts | 254° |
| 2026-05-05 06:02 | 52.16950 | 15.46228 | 22289 ft | 347 kts | 254° |
| 2026-05-05 06:02 | 52.16362 | 15.42439 | 21801 ft | 344 kts | 254° |
| 2026-05-05 06:02 | 52.15779 | 15.38680 | 21305 ft | 341 kts | 254° |
| 2026-05-05 06:02 | 52.15197 | 15.34943 | 20823 ft | 339 kts | 254° |
| 2026-05-05 06:03 | 52.14619 | 15.31230 | 20340 ft | 337 kts | 254° |
| 2026-05-05 06:03 | 52.14044 | 15.27551 | 19875 ft | 334 kts | 254° |
| 2026-05-05 06:03 | 52.13472 | 15.23899 | 19412 ft | 332 kts | 255° |
| 2026-05-05 06:03 | 52.12902 | 15.20259 | 18955 ft | 331 kts | 255° |
| 2026-05-05 06:04 | 52.12332 | 15.16634 | 18510 ft | 329 kts | 255° |
| 2026-05-05 06:04 | 52.11769 | 15.13057 | 18068 ft | 329 kts | 255° |
| 2026-05-05 06:04 | 52.11201 | 15.09458 | 17600 ft | 328 kts | 255° |
| 2026-05-05 06:04 | 52.10636 | 15.05886 | 17171 ft | 324 kts | 255° |
| 2026-05-05 06:05 | 52.10075 | 15.02343 | 16749 ft | 321 kts | 255° |
| 2026-05-05 06:05 | 52.09517 | 14.98834 | 16329 ft | 318 kts | 255° |
| 2026-05-05 06:05 | 52.08965 | 14.95359 | 15924 ft | 315 kts | 255° |
| 2026-05-05 06:05 | 52.08415 | 14.91912 | 15528 ft | 314 kts | 255° |
| 2026-05-05 06:06 | 52.07868 | 14.88485 | 15130 ft | 312 kts | 255° |
| 2026-05-05 06:06 | 52.07324 | 14.85080 | 14765 ft | 310 kts | 254° |
| 2026-05-05 06:06 | 52.06788 | 14.81745 | 14364 ft | 308 kts | 254° |
| 2026-05-05 06:06 | 52.06248 | 14.78388 | 13984 ft | 306 kts | 254° |
| 2026-05-05 06:07 | 52.05781 | 14.75024 | 13585 ft | 304 kts | 261° |
| 2026-05-05 06:07 | 52.05636 | 14.71596 | 13162 ft | 303 kts | 266° |
| 2026-05-05 06:07 | 52.05551 | 14.68186 | 12750 ft | 301 kts | 266° |
| 2026-05-05 06:07 | 52.05469 | 14.64814 | 12419 ft | 297 kts | 266° |
| 2026-05-05 06:08 | 52.05383 | 14.61487 | 12086 ft | 293 kts | 265° |
| 2026-05-05 06:08 | 52.05294 | 14.58215 | 11923 ft | 284 kts | 265° |
| 2026-05-05 06:08 | 52.05204 | 14.55076 | 11897 ft | 274 kts | 265° |
| 2026-05-05 06:08 | 52.05115 | 14.52012 | 11886 ft | 270 kts | 265° |
| 2026-05-05 06:09 | 52.05023 | 14.48953 | 11898 ft | 272 kts | 265° |
| 2026-05-05 06:09 | 52.04929 | 14.45881 | 11887 ft | 273 kts | 265° |
| 2026-05-05 06:09 | 52.04834 | 14.42801 | 11898 ft | 273 kts | 265° |
| 2026-05-05 06:09 | 52.04837 | 14.39711 | 11895 ft | 274 kts | 272° |
| 2026-05-05 06:10 | 52.05024 | 14.36666 | 11904 ft | 274 kts | 274° |
| 2026-05-05 06:10 | 52.05253 | 14.33583 | 11899 ft | 275 kts | 274° |
| 2026-05-05 06:10 | 52.05485 | 14.30479 | 11663 ft | 278 kts | 274° |
| 2026-05-05 06:10 | 52.05713 | 14.27346 | 11431 ft | 280 kts | 274° |
| 2026-05-05 06:11 | 52.05935 | 14.24213 | 11177 ft | 277 kts | 274° |
| 2026-05-05 06:11 | 52.06148 | 14.21118 | 10922 ft | 273 kts | 274° |
| 2026-05-05 06:11 | 52.06354 | 14.18070 | 10672 ft | 270 kts | 274° |
| 2026-05-05 06:11 | 52.06555 | 14.15050 | 10425 ft | 267 kts | 274° |
| 2026-05-05 06:12 | 52.06752 | 14.12053 | 10183 ft | 266 kts | 274° |
| 2026-05-05 06:12 | 52.06944 | 14.09108 | 9938 ft | 265 kts | 274° |
| 2026-05-05 06:12 | 52.07136 | 14.06134 | 9702 ft | 264 kts | 274° |
| 2026-05-05 06:12 | 52.07327 | 14.03171 | 9441 ft | 263 kts | 274° |
| 2026-05-05 06:13 | 52.07516 | 14.00215 | 9173 ft | 263 kts | 273° |
| 2026-05-05 06:13 | 52.07704 | 13.97261 | 8914 ft | 263 kts | 273° |
| 2026-05-05 06:13 | 52.07891 | 13.94306 | 8655 ft | 262 kts | 274° |
| 2026-05-05 06:13 | 52.08077 | 13.91359 | 8399 ft | 262 kts | 274° |
| 2026-05-05 06:14 | 52.08262 | 13.88414 | 8148 ft | 262 kts | 274° |
| 2026-05-05 06:14 | 52.08446 | 13.85475 | 7969 ft | 261 kts | 274° |
| 2026-05-05 06:14 | 52.08630 | 13.82529 | 7924 ft | 264 kts | 274° |
| 2026-05-05 06:14 | 52.08814 | 13.79562 | 7906 ft | 262 kts | 274° |
| 2026-05-05 06:15 | 52.08996 | 13.76626 | 7892 ft | 260 kts | 274° |
| 2026-05-05 06:15 | 52.09174 | 13.73739 | 7900 ft | 260 kts | 274° |
| 2026-05-05 06:15 | 52.09354 | 13.70804 | 7906 ft | 261 kts | 274° |
| 2026-05-05 06:15 | 52.09534 | 13.67861 | 7903 ft | 262 kts | 274° |
| 2026-05-05 06:16 | 52.09713 | 13.64913 | 7905 ft | 262 kts | 274° |
| 2026-05-05 06:16 | 52.09899 | 13.61965 | 7903 ft | 262 kts | 275° |
| 2026-05-05 06:16 | 52.10120 | 13.59023 | 7904 ft | 262 kts | 275° |
| 2026-05-05 06:16 | 52.10349 | 13.56082 | 7904 ft | 262 kts | 275° |
| 2026-05-05 06:17 | 52.10578 | 13.53123 | 7671 ft | 267 kts | 275° |
| 2026-05-05 06:17 | 52.10809 | 13.50115 | 7377 ft | 267 kts | 275° |
| 2026-05-05 06:17 | 52.11037 | 13.47133 | 7078 ft | 265 kts | 275° |
| 2026-05-05 06:17 | 52.11261 | 13.44172 | 6783 ft | 263 kts | 275° |
| 2026-05-05 06:18 | 52.11482 | 13.41230 | 6483 ft | 261 kts | 275° |
| 2026-05-05 06:18 | 52.11700 | 13.38314 | 6191 ft | 259 kts | 276° |
| 2026-05-05 06:18 | 52.11959 | 13.35429 | 5950 ft | 256 kts | 284° |
| 2026-05-05 06:18 | 52.12766 | 13.32959 | 5906 ft | 247 kts | 305° |
| 2026-05-05 06:19 | 52.13791 | 13.30785 | 5894 ft | 239 kts | 305° |
| 2026-05-05 06:19 | 52.14794 | 13.28645 | 5897 ft | 237 kts | 305° |
| 2026-05-05 06:19 | 52.15789 | 13.26507 | 5913 ft | 237 kts | 305° |
| 2026-05-05 06:19 | 52.16790 | 13.24344 | 5909 ft | 240 kts | 305° |
| 2026-05-05 06:20 | 52.17795 | 13.22167 | 5916 ft | 242 kts | 305° |
| 2026-05-05 06:20 | 52.18593 | 13.19772 | 5885 ft | 240 kts | 279° |
| 2026-05-05 06:20 | 52.18504 | 13.17106 | 5910 ft | 236 kts | 253° |
| 2026-05-05 06:20 | 52.17958 | 13.14623 | 5906 ft | 235 kts | 247° |
| 2026-05-05 06:21 | 52.17337 | 13.12146 | 5882 ft | 236 kts | 247° |
| 2026-05-05 06:21 | 52.16718 | 13.09672 | 5880 ft | 235 kts | 246° |
| 2026-05-05 06:21 | 52.16101 | 13.07208 | 5876 ft | 234 kts | 247° |
| 2026-05-05 06:21 | 52.15497 | 13.04756 | 5877 ft | 233 kts | 247° |
| 2026-05-05 06:22 | 52.14899 | 13.02309 | 5876 ft | 231 kts | 248° |
| 2026-05-05 06:22 | 52.14306 | 12.99878 | 5891 ft | 230 kts | 248° |
| 2026-05-05 06:22 | 52.13716 | 12.97458 | 5892 ft | 231 kts | 248° |
| 2026-05-05 06:22 | 52.13123 | 12.95029 | 5875 ft | 231 kts | 248° |
| 2026-05-05 06:23 | 52.12530 | 12.92599 | 5871 ft | 231 kts | 248° |
| 2026-05-05 06:23 | 52.11937 | 12.90176 | 5874 ft | 229 kts | 248° |
| 2026-05-05 06:23 | 52.11348 | 12.87765 | 5875 ft | 228 kts | 248° |
| 2026-05-05 06:23 | 52.10762 | 12.85370 | 5893 ft | 227 kts | 247° |
| 2026-05-05 06:24 | 52.10185 | 12.83015 | 5888 ft | 227 kts | 247° |
| 2026-05-05 06:24 | 52.09599 | 12.80630 | 5885 ft | 227 kts | 247° |
| 2026-05-05 06:24 | 52.09013 | 12.78242 | 5886 ft | 228 kts | 247° |
| 2026-05-05 06:24 | 52.08423 | 12.75842 | 5909 ft | 229 kts | 247° |
| 2026-05-05 06:25 | 52.07834 | 12.73409 | 5887 ft | 233 kts | 251° |
| 2026-05-05 06:25 | 52.07749 | 12.70791 | 5880 ft | 238 kts | 283° |
| 2026-05-05 06:25 | 52.08559 | 12.68445 | 5889 ft | 243 kts | 313° |
| 2026-05-05 06:25 | 52.09985 | 12.66931 | 5901 ft | 247 kts | 333° |
| 2026-05-05 06:26 | 52.11557 | 12.65880 | 5890 ft | 249 kts | 339° |
| 2026-05-05 06:26 | 52.13279 | 12.65647 | 5883 ft | 253 kts | 11° |
| 2026-05-05 06:26 | 52.14858 | 12.66948 | 5890 ft | 255 kts | 44° |
| 2026-05-05 06:26 | 52.15846 | 12.69267 | 5902 ft | 253 kts | 66° |
| 2026-05-05 06:27 | 52.16524 | 12.71907 | 5880 ft | 251 kts | 70° |
| 2026-05-05 06:27 | 52.17761 | 12.77200 | 5876 ft | 248 kts | 70° |
| 2026-05-05 06:27 | 52.18385 | 12.79818 | 5879 ft | 247 kts | 70° |
| 2026-05-05 06:28 | 52.19021 | 12.82447 | 5771 ft | 252 kts | 69° |
| 2026-05-05 06:28 | 52.19668 | 12.85110 | 5652 ft | 254 kts | 69° |
| 2026-05-05 06:28 | 52.20320 | 12.87788 | 5519 ft | 252 kts | 69° |
| 2026-05-05 06:28 | 52.20963 | 12.90428 | 5328 ft | 250 kts | 69° |
| 2026-05-05 06:29 | 52.21603 | 12.93056 | 5051 ft | 249 kts | 69° |
| 2026-05-05 06:29 | 52.22242 | 12.95682 | 4795 ft | 249 kts | 68° |
| 2026-05-05 06:29 | 52.22882 | 12.98312 | 4538 ft | 250 kts | 68° |
| 2026-05-05 06:29 | 52.23517 | 13.00930 | 4262 ft | 252 kts | 68° |
| 2026-05-05 06:30 | 52.24166 | 13.03602 | 3989 ft | 254 kts | 69° |
| 2026-05-05 06:30 | 52.24819 | 13.06295 | 3724 ft | 255 kts | 69° |
| 2026-05-05 06:30 | 52.25461 | 13.08945 | 3461 ft | 244 kts | 69° |
| 2026-05-05 06:30 | 52.26064 | 13.11441 | 3181 ft | 229 kts | 69° |
| 2026-05-05 06:31 | 52.26625 | 13.13762 | 3022 ft | 209 kts | 69° |
| 2026-05-05 06:31 | 52.27136 | 13.15881 | 2976 ft | 192 kts | 69° |
| 2026-05-05 06:31 | 52.27607 | 13.17793 | 2961 ft | 170 kts | 68° |
| 2026-05-05 06:31 | 52.28062 | 13.19476 | 2966 ft | 157 kts | 69° |
| 2026-05-05 06:32 | 52.28475 | 13.21108 | 3014 ft | 157 kts | 70° |
| 2026-05-05 06:32 | 52.28876 | 13.22770 | 3004 ft | 157 kts | 71° |
| 2026-05-05 06:32 | 52.29266 | 13.24412 | 2970 ft | 158 kts | 71° |
| 2026-05-05 06:32 | 52.29664 | 13.26107 | 2826 ft | 158 kts | 71° |
| 2026-05-05 06:33 | 52.30052 | 13.27762 | 2617 ft | 156 kts | 71° |
| 2026-05-05 06:33 | 52.30438 | 13.29407 | 2420 ft | 154 kts | 71° |
| 2026-05-05 06:33 | 52.30820 | 13.31035 | 2223 ft | 154 kts | 71° |
| 2026-05-05 06:33 | 52.31204 | 13.32669 | 2018 ft | 153 kts | 71° |
| 2026-05-05 06:34 | 52.31584 | 13.34285 | 1806 ft | 151 kts | 71° |
| 2026-05-05 06:34 | 52.31959 | 13.35881 | 1607 ft | 150 kts | 71° |
| 2026-05-05 06:34 | 52.32331 | 13.37460 | 1406 ft | 148 kts | 71° |
| 2026-05-05 06:34 | 52.32699 | 13.39025 | 1205 ft | 147 kts | 71° |
| 2026-05-05 06:35 | 52.33064 | 13.40588 | 969 ft | 147 kts | 70° |
| 2026-05-05 06:35 | 52.33422 | 13.42097 | 793 ft | 140 kts | 68° |
| 2026-05-05 06:35 | 52.33776 | 13.43585 | 594 ft | 141 kts | 68° |
| 2026-05-05 06:35 | 52.34125 | 13.45071 | 425 ft | 139 kts | 67° |
| 2026-05-05 06:36 | 52.34471 | 13.46523 | 238 ft | 137 kts | 68° |
| 2026-05-05 06:36 | 52.34796 | 13.47933 | 155 ft | 122 kts | 68° |
| 2026-05-05 06:36 | 52.35037 | 13.48921 | 153 ft | 64 kts | 68° |
| 2026-05-05 06:36 | 52.35236 | 13.49368 | 153 ft | 24 kts | 39° |
| 2026-05-05 06:37 | 52.35269 | 13.49414 | 153 ft | 6 kts | 39° |
| 2026-05-05 06:37 | 52.35305 | 13.49460 | 153 ft | 7 kts | 38° |
| 2026-05-05 06:37 | 52.35343 | 13.49508 | 153 ft | 7 kts | 37° |
| 2026-05-05 06:37 | 52.35379 | 13.49555 | 153 ft | 7 kts | 41° |
| 2026-05-05 06:38 | 52.35416 | 13.49606 | 153 ft | 7 kts | 39° |
| 2026-05-05 06:38 | 52.35451 | 13.49674 | 153 ft | 9 kts | 58° |
| 2026-05-05 06:38 | 52.35474 | 13.49772 | 153 ft | 10 kts | 72° |
| 2026-05-05 06:38 | 52.35500 | 13.49882 | 153 ft | 11 kts | 68° |
| 2026-05-05 06:39 | 52.35530 | 13.50005 | 153 ft | 12 kts | 69° |
| 2026-05-05 06:39 | 52.35558 | 13.50129 | 153 ft | 11 kts | 67° |
| 2026-05-05 06:39 | 52.35586 | 13.50238 | 153 ft | 10 kts | 67° |
| 2026-05-05 06:39 | 52.35611 | 13.50345 | 153 ft | 10 kts | 71° |
| 2026-05-05 06:40 | 52.35635 | 13.50450 | 153 ft | 10 kts | 69° |
| 2026-05-05 06:40 | 52.35661 | 13.50560 | 153 ft | 11 kts | 69° |
| 2026-05-05 06:40 | 52.35689 | 13.50678 | 154 ft | 12 kts | 69° |
| 2026-05-05 06:40 | 52.35723 | 13.50801 | 154 ft | 12 kts | 50° |
| 2026-05-05 06:41 | 52.35800 | 13.50807 | 154 ft | 12 kts | 340° |
| 2026-05-05 06:41 | 52.35874 | 13.50760 | 154 ft | 11 kts | 339° |
| 2026-05-05 06:41 | 52.35948 | 13.50714 | 154 ft | 11 kts | 340° |
| 2026-05-05 06:41 | 52.36019 | 13.50670 | 154 ft | 11 kts | 339° |
| 2026-05-05 06:42 | 52.36093 | 13.50622 | 154 ft | 12 kts | 339° |
| 2026-05-05 06:42 | 52.36170 | 13.50575 | 154 ft | 12 kts | 340° |
| 2026-05-05 06:42 | 52.36244 | 13.50528 | 154 ft | 11 kts | 337° |
| 2026-05-05 06:42 | 52.36305 | 13.50487 | 154 ft | 6 kts | 338° |
| 2026-05-05 06:43 | 52.36339 | 13.50464 | 154 ft | 5 kts | 339° |
| 2026-05-05 06:43 | 52.36373 | 13.50444 | 154 ft | 5 kts | 341° |
| 2026-05-05 06:43 | 52.36410 | 13.50422 | 154 ft | 6 kts | 339° |
| 2026-05-05 06:43 | 52.36450 | 13.50397 | 154 ft | 5 kts | 339° |
| 2026-05-05 06:44 | 52.36472 | 13.50399 | 154 ft | 3 kts | 43° |
| 2026-05-05 06:44 | 52.36486 | 13.50439 | 154 ft | 5 kts | 67° |
| 2026-05-05 06:44 | 52.36499 | 13.50494 | 154 ft | 5 kts | 69° |
| 2026-05-05 06:44 | 52.36503 | 13.50511 | 154 ft | 0 kts | 68° |
| 2026-05-05 06:45 | 52.36503 | 13.50514 | 154 ft | 0 kts | 68° |